createdAt,value
2022-12-07T00:01:11.373Z,27.77
2022-12-07T00:03:39.829Z,29.25
2022-12-07T00:06:08.748Z,28.20
2022-12-07T00:08:36.064Z,29.00
2022-12-07T00:11:11.480Z,28.55
2022-12-07T00:13:38.833Z,26.20
2022-12-07T00:16:14.779Z,26.83
2022-12-07T00:18:42.496Z,24.55
2022-12-07T00:21:16.483Z,21.75
2022-12-07T00:23:45.175Z,23.90
2022-12-07T00:26:14.439Z,22.85
2022-12-07T00:28:41.675Z,22.55
2022-12-07T00:31:11.809Z,17.80
2022-12-07T00:33:39.312Z,20.40
2022-12-07T00:36:11.556Z,22.67
2022-12-07T00:38:39.863Z,18.20
2022-12-07T00:41:14.921Z,18.45
2022-12-07T00:43:43.046Z,20.90
2022-12-07T00:46:12.294Z,19.23
2022-12-07T00:48:39.307Z,19.48
2022-12-07T00:51:06.882Z,19.75
2022-12-07T00:53:41.390Z,18.90
2022-12-07T00:56:10.226Z,18.90
2022-12-07T00:58:36.898Z,17.42
2022-12-07T01:01:05.353Z,17.17
2022-12-07T01:03:32.327Z,16.15
2022-12-07T01:05:59.504Z,18.17
2022-12-07T01:08:28.203Z,18.23
2022-12-07T01:11:06.961Z,19.35
2022-12-07T01:13:35.287Z,18.75
2022-12-07T01:16:04.333Z,17.77
2022-12-07T01:18:32.800Z,17.85
2022-12-07T01:21:17.485Z,18.08
2022-12-07T01:23:44.727Z,19.15
2022-12-07T01:26:14.194Z,17.70
2022-12-07T01:28:41.090Z,18.90
2022-12-07T01:31:13.518Z,17.52
2022-12-07T01:33:40.609Z,19.27
2022-12-07T01:36:13.777Z,17.15
2022-12-07T01:38:40.757Z,17.92
2022-12-07T01:41:07.659Z,17.95
2022-12-07T01:43:35.411Z,17.63
2022-12-07T01:46:03.444Z,18.55
2022-12-07T01:48:36.290Z,14.50
2022-12-07T01:51:09.173Z,16.08
2022-12-07T01:53:39.179Z,16.05
2022-12-07T01:56:09.076Z,11.75
2022-12-07T01:58:36.234Z,12.15
2022-12-07T02:01:03.055Z,13.52
2022-12-07T02:03:40.577Z,14.70
2022-12-07T02:06:08.638Z,11.30
2022-12-07T02:08:36.006Z,12.02
2022-12-07T02:11:04.920Z,10.48
2022-12-07T02:13:34.414Z,10.98
2022-12-07T02:16:22.944Z,11.15
2022-12-07T02:19:11.519Z,13.15
2022-12-07T02:21:57.981Z,11.30
2022-12-07T02:24:33.475Z,11.32
2022-12-07T02:27:21.745Z,10.85
2022-12-07T02:29:57.702Z,10.02
2022-12-07T02:32:51.172Z,10.23
2022-12-07T02:35:29.724Z,12.20
2022-12-07T02:38:11.997Z,11.48
2022-12-07T02:41:00.153Z,12.75
2022-12-07T02:43:30.329Z,11.40
2022-12-07T02:46:02.480Z,13.98
2022-12-07T02:48:29.690Z,14.68
2022-12-07T02:50:56.401Z,13.70
2022-12-07T02:53:34.955Z,15.65
2022-12-07T02:56:08.689Z,15.48
2022-12-07T02:58:50.359Z,14.15
2022-12-07T03:01:29.130Z,14.63
2022-12-07T03:04:20.095Z,17.23
2022-12-07T03:07:00.036Z,16.90
2022-12-07T03:10:00.567Z,15.50
2022-12-07T03:12:45.048Z,15.63
2022-12-07T03:15:19.508Z,16.10
2022-12-07T03:17:48.689Z,17.30
2022-12-07T03:20:20.057Z,18.27
2022-12-07T03:22:48.495Z,19.27
2022-12-07T03:25:17.348Z,16.45
2022-12-07T03:27:54.314Z,16.77
2022-12-07T03:30:24.014Z,17.92
2022-12-07T03:33:09.588Z,18.23
2022-12-07T03:35:41.322Z,17.90
2022-12-07T03:38:35.562Z,20.33
2022-12-07T03:41:12.422Z,21.02
2022-12-07T03:43:40.905Z,22.23
2022-12-07T03:46:25.760Z,21.27
2022-12-07T03:48:52.564Z,19.42
2022-12-07T03:51:41.214Z,19.65
2022-12-07T03:54:46.307Z,20.02
2022-12-07T03:57:14.309Z,18.10
2022-12-07T03:59:42.176Z,20.98
2022-12-07T04:02:11.950Z,21.67
2022-12-07T04:04:38.734Z,22.83
2022-12-07T04:07:05.807Z,22.83
2022-12-07T04:09:32.453Z,22.63
2022-12-07T04:11:59.137Z,24.73
2022-12-07T04:14:25.898Z,28.88
2022-12-07T04:16:55.336Z,27.90
2022-12-07T04:19:24.295Z,27.75
2022-12-07T04:21:50.933Z,31.88
2022-12-07T04:24:18.101Z,35.95
2022-12-07T04:26:45.337Z,28.30
2022-12-07T04:29:12.848Z,30.95
2022-12-07T04:31:40.043Z,35.70
2022-12-07T04:34:08.142Z,33.13
2022-12-07T04:36:34.809Z,33.33
2022-12-07T04:39:02.126Z,37.65
2022-12-07T04:41:28.843Z,38.15
2022-12-07T04:44:00.929Z,40.17
2022-12-07T04:46:28.898Z,39.78
2022-12-07T04:48:56.117Z,41.20
2022-12-07T04:51:25.732Z,42.50
2022-12-07T04:53:52.669Z,48.92
2022-12-07T04:56:19.752Z,47.15
2022-12-07T04:58:48.259Z,47.05
2022-12-07T05:01:17.024Z,56.05
2022-12-07T05:03:44.254Z,49.53
2022-12-07T05:06:13.818Z,51.00
2022-12-07T05:08:40.955Z,50.55
2022-12-07T05:11:08.751Z,57.20
2022-12-07T05:13:37.191Z,51.10
2022-12-07T05:16:04.141Z,52.65
2022-12-07T05:18:31.025Z,57.08
2022-12-07T05:20:57.680Z,62.35
2022-12-07T05:23:24.333Z,58.33
2022-12-07T05:25:51.114Z,54.72
2022-12-07T05:28:17.855Z,58.63
2022-12-07T05:30:44.539Z,57.17
2022-12-07T05:33:11.229Z,59.97
2022-12-07T05:35:37.862Z,54.97
2022-12-07T05:38:04.495Z,69.07
2022-12-07T05:40:31.170Z,63.55
2022-12-07T05:43:02.667Z,61.28
2022-12-07T05:45:31.103Z,63.72
2022-12-07T05:47:57.866Z,65.40
2022-12-07T05:50:24.601Z,67.18
2022-12-07T05:52:51.305Z,72.32
2022-12-07T05:55:18.014Z,69.68
2022-12-07T05:57:44.700Z,62.40
2022-12-07T06:00:13.437Z,66.78
2022-12-07T06:02:40.188Z,69.38
2022-12-07T06:05:07.489Z,67.25
2022-12-07T06:07:34.228Z,73.80
2022-12-07T06:10:01.278Z,67.25
2022-12-07T06:12:28.223Z,68.85
2022-12-07T06:14:54.908Z,61.90
2022-12-07T06:17:21.622Z,78.20
2022-12-07T06:19:48.285Z,66.03
2022-12-07T06:22:15.001Z,75.00
2022-12-07T06:24:41.729Z,76.03
2022-12-07T06:27:09.274Z,72.90
2022-12-07T06:29:35.928Z,81.53
2022-12-07T06:32:02.952Z,76.93
2022-12-07T06:34:29.988Z,71.90
2022-12-07T06:36:56.886Z,75.55
2022-12-07T06:39:26.495Z,67.15
2022-12-07T06:41:53.545Z,65.03
2022-12-07T06:44:20.356Z,65.07
2022-12-07T06:46:47.377Z,68.95
2022-12-07T06:49:14.039Z,64.22
2022-12-07T06:51:40.767Z,67.68
2022-12-07T06:54:08.166Z,66.45
2022-12-07T06:56:34.884Z,65.90
2022-12-07T06:59:05.502Z,63.90
2022-12-07T07:01:32.413Z,58.78
2022-12-07T07:03:59.206Z,61.28
2022-12-07T07:06:26.012Z,64.45
2022-12-07T07:08:52.909Z,60.38
2022-12-07T07:11:20.152Z,62.22
2022-12-07T07:13:46.981Z,62.17
2022-12-07T07:16:14.168Z,60.05
2022-12-07T07:18:40.908Z,61.90
2022-12-07T07:21:07.674Z,68.38
2022-12-07T07:23:34.350Z,58.42
2022-12-07T07:26:01.184Z,57.53
2022-12-07T07:28:27.865Z,57.15
2022-12-07T07:30:54.671Z,55.78
2022-12-07T07:33:21.549Z,50.13
2022-12-07T07:35:48.277Z,49.85
2022-12-07T07:38:14.969Z,45.58
2022-12-07T07:40:41.714Z,42.92
2022-12-07T07:43:08.379Z,43.28
2022-12-07T07:45:35.022Z,42.10
2022-12-07T07:48:01.683Z,40.45
2022-12-07T07:50:28.434Z,44.00
2022-12-07T07:52:55.197Z,40.05
2022-12-07T07:55:21.875Z,37.72
2022-12-07T07:57:54.272Z,35.40
2022-12-07T08:00:22.120Z,41.22
2022-12-07T08:02:49.014Z,35.00
2022-12-07T08:05:15.907Z,31.98
2022-12-07T08:07:42.812Z,32.63
2022-12-07T08:10:12.796Z,28.60
2022-12-07T08:12:40.791Z,32.53
2022-12-07T08:15:07.892Z,28.88
2022-12-07T08:17:34.578Z,26.55
2022-12-07T08:20:01.643Z,30.27
2022-12-07T08:22:28.573Z,27.05
2022-12-07T08:24:55.259Z,23.35
2022-12-07T08:27:21.943Z,22.55
2022-12-07T08:29:48.728Z,22.35
2022-12-07T08:32:15.402Z,20.25
2022-12-07T08:34:42.264Z,21.38
2022-12-07T08:37:08.956Z,20.80
2022-12-07T08:39:35.647Z,21.10
2022-12-07T08:42:02.320Z,18.67
2022-12-07T08:44:29.032Z,16.58
2022-12-07T08:47:01.941Z,15.68
2022-12-07T08:49:43.674Z,16.63
2022-12-07T08:52:10.385Z,9.65
2022-12-07T08:54:39.862Z,10.05
2022-12-07T08:57:07.479Z,10.05
2022-12-07T08:59:36.727Z,10.20
2022-12-07T09:02:03.783Z,11.30
2022-12-07T09:04:30.482Z,9.10
2022-12-07T09:07:02.915Z,7.43
2022-12-07T09:09:43.744Z,8.38
2022-12-07T09:12:22.807Z,4.53
2022-12-07T09:14:52.732Z,6.68
2022-12-07T09:17:19.458Z,9.38
2022-12-07T09:19:46.196Z,5.53
2022-12-07T09:22:13.024Z,5.18
2022-12-07T09:24:39.774Z,5.90
2022-12-07T09:27:06.479Z,9.57
2022-12-07T09:29:33.211Z,4.25
2022-12-07T09:31:59.994Z,4.70
2022-12-07T09:34:26.800Z,6.10
2022-12-07T09:36:53.560Z,2.70
2022-12-07T09:39:20.217Z,2.78
2022-12-07T09:41:46.884Z,4.63
2022-12-07T09:44:23.978Z,3.22
2022-12-07T09:46:51.740Z,4.53
2022-12-07T09:49:24.789Z,4.00
2022-12-07T09:52:20.582Z,3.38
2022-12-07T09:54:50.071Z,4.65
2022-12-07T09:57:17.211Z,4.15
2022-12-07T09:59:44.061Z,5.32
2022-12-07T10:02:32.940Z,5.00
2022-12-07T10:05:00.735Z,6.63
2022-12-07T10:07:27.749Z,4.35
2022-12-07T10:09:54.531Z,3.67
2022-12-07T10:12:21.288Z,2.80
2022-12-07T10:15:08.226Z,4.93
2022-12-07T10:17:42.438Z,4.00
2022-12-07T10:20:19.500Z,3.88
2022-12-07T10:23:01.580Z,3.88
2022-12-07T10:25:38.175Z,5.38
2022-12-07T10:28:15.632Z,2.50
2022-12-07T10:31:01.797Z,4.90
2022-12-07T10:36:35.724Z,4.47
2022-12-07T10:39:11.533Z,3.67
2022-12-07T10:41:58.138Z,5.65
2022-12-07T10:44:28.106Z,6.88
2022-12-07T10:47:06.803Z,5.97
2022-12-07T10:49:39.584Z,6.07
2022-12-07T10:52:17.492Z,7.10
2022-12-07T10:55:14.394Z,7.47
2022-12-07T10:58:04.066Z,6.63
2022-12-07T11:01:17.991Z,6.40
2022-12-07T11:03:54.744Z,9.77
2022-12-07T11:06:40.375Z,8.60
2022-12-07T11:12:58.261Z,10.15
2022-12-07T11:15:27.974Z,12.02
2022-12-07T11:17:57.702Z,11.07
2022-12-07T11:20:55.122Z,7.72
2022-12-07T11:23:27.580Z,10.88
2022-12-07T11:26:12.422Z,11.10
2022-12-07T11:29:09.230Z,9.55
2022-12-07T11:31:56.809Z,9.35
2022-12-07T11:34:55.938Z,14.57
2022-12-07T11:37:34.783Z,8.63
2022-12-07T11:40:27.485Z,11.38
2022-12-07T11:43:12.163Z,8.23
2022-12-07T11:45:43.205Z,12.15
2022-12-07T11:48:25.982Z,11.95
2022-12-07T11:50:58.484Z,9.65
2022-12-07T11:53:40.771Z,6.75
2022-12-07T11:56:13.264Z,14.10
2022-12-07T11:58:52.293Z,13.07
2022-12-07T12:01:49.997Z,10.40
2022-12-07T12:04:29.014Z,9.63
2022-12-07T12:06:56.632Z,12.77
2022-12-07T12:15:44.929Z,12.15
2022-12-07T12:18:11.607Z,14.27
2022-12-07T12:20:49.324Z,14.13
2022-12-07T12:23:23.400Z,12.55
2022-12-07T12:25:59.773Z,11.68
2022-12-07T12:28:51.663Z,11.90
2022-12-07T12:31:21.290Z,13.40
2022-12-07T12:33:53.523Z,11.45
2022-12-07T12:36:32.454Z,12.55
2022-12-07T12:39:08.249Z,10.95
2022-12-07T12:41:38.006Z,10.23
2022-12-07T12:44:24.581Z,14.10
2022-12-07T12:47:24.610Z,10.30
2022-12-07T12:50:24.048Z,11.90
2022-12-07T12:52:58.946Z,10.75
2022-12-07T12:55:43.167Z,12.17
2022-12-07T12:58:18.987Z,12.50
2022-12-07T13:01:07.196Z,12.82
2022-12-07T13:03:33.941Z,13.75
2022-12-07T13:06:25.168Z,9.73
2022-12-07T13:08:53.903Z,13.13
2022-12-07T13:11:32.096Z,9.15
2022-12-07T13:14:38.038Z,11.55
2022-12-07T13:17:05.270Z,12.50
2022-12-07T13:19:43.943Z,11.27
2022-12-07T13:22:32.216Z,17.23
2022-12-07T13:25:13.472Z,12.18
2022-12-07T13:27:44.469Z,10.00
2022-12-07T13:30:20.815Z,10.95
2022-12-07T13:32:59.033Z,12.85
2022-12-07T13:35:37.079Z,12.98
2022-12-07T13:38:06.916Z,10.18
2022-12-07T13:40:33.619Z,8.95
2022-12-07T13:43:02.734Z,9.55
2022-12-07T13:45:32.465Z,11.90
2022-12-07T13:48:00.529Z,9.27
2022-12-07T13:50:32.152Z,11.48
2022-12-07T13:53:01.439Z,15.25
2022-12-07T13:55:29.412Z,14.65
2022-12-07T13:57:56.937Z,6.07
2022-12-07T14:00:25.038Z,9.93
2022-12-07T14:03:18.203Z,12.57
2022-12-07T14:05:45.901Z,13.07
2022-12-07T14:08:12.649Z,8.73
2022-12-07T14:10:51.580Z,14.35
2022-12-07T14:13:39.087Z,11.35
2022-12-07T14:16:30.644Z,13.90
2022-12-07T14:19:00.225Z,11.82
2022-12-07T14:21:32.291Z,10.70
2022-12-07T14:24:20.325Z,10.32
2022-12-07T14:26:49.468Z,10.98
2022-12-07T14:29:28.415Z,11.20
2022-12-07T14:31:56.400Z,16.48
2022-12-07T14:34:24.211Z,11.35
2022-12-07T14:36:51.900Z,12.07
2022-12-07T14:39:18.621Z,12.60
2022-12-07T14:41:45.366Z,7.93
2022-12-07T14:44:34.166Z,9.38
2022-12-07T14:49:47.399Z,16.42
2022-12-07T14:55:25.331Z,13.65
2022-12-07T14:57:52.808Z,13.20
2022-12-07T15:00:21.120Z,10.27
2022-12-07T15:02:49.731Z,11.10
2022-12-07T15:05:17.424Z,12.23
2022-12-07T15:07:45.784Z,19.90
2022-12-07T15:10:25.034Z,14.80
2022-12-07T15:12:52.160Z,16.65
2022-12-07T15:15:18.824Z,9.90
2022-12-07T15:17:45.674Z,11.90
2022-12-07T15:20:16.260Z,12.85
2022-12-07T15:22:42.906Z,12.48
2022-12-07T15:25:14.006Z,9.05
2022-12-07T15:27:40.666Z,14.30
2022-12-07T15:30:08.051Z,11.52
2022-12-07T15:32:34.928Z,10.80
2022-12-07T15:35:02.020Z,10.32
2022-12-07T15:37:29.044Z,11.32
2022-12-07T15:39:55.866Z,13.27
2022-12-07T15:42:22.541Z,11.55
2022-12-07T15:44:49.226Z,12.68
2022-12-07T15:47:15.953Z,10.38
2022-12-07T15:49:42.638Z,15.73
2022-12-07T15:52:09.480Z,13.38
2022-12-07T15:54:36.393Z,16.33
2022-12-07T15:57:03.234Z,17.30
2022-12-07T15:59:30.339Z,15.82
2022-12-07T16:01:57.535Z,19.80
2022-12-07T16:04:24.252Z,11.95
2022-12-07T16:06:50.912Z,11.88
2022-12-07T16:09:17.994Z,14.80
2022-12-07T16:11:44.656Z,12.98
2022-12-07T16:14:11.319Z,12.00
2022-12-07T16:16:38.207Z,12.30
2022-12-07T16:19:04.945Z,16.58
2022-12-07T16:21:31.687Z,8.60
2022-12-07T16:23:59.053Z,14.25
2022-12-07T16:26:25.777Z,12.38
2022-12-07T16:28:53.925Z,16.67
2022-12-07T16:31:24.246Z,12.70
2022-12-07T16:33:53.316Z,11.98
2022-12-07T16:36:47.356Z,10.73
2022-12-07T16:39:07.633Z,10.38
2022-12-07T16:41:34.558Z,10.57
2022-12-07T16:44:08.169Z,11.07
2022-12-07T16:46:36.597Z,17.33
2022-12-07T16:49:04.603Z,10.55
2022-12-07T16:51:31.910Z,15.13
2022-12-07T16:53:58.612Z,13.82
2022-12-07T16:56:25.296Z,16.17
2022-12-07T16:58:51.972Z,15.02
2022-12-07T17:01:20.848Z,13.23
2022-12-07T17:03:48.062Z,12.00
2022-12-07T17:06:23.570Z,14.40
2022-12-07T17:08:51.448Z,13.35
2022-12-07T17:11:19.664Z,13.77
2022-12-07T17:13:46.941Z,14.75
2022-12-07T17:16:13.651Z,13.57
2022-12-07T17:18:40.425Z,12.40
2022-12-07T17:21:09.818Z,12.73
2022-12-07T17:23:37.923Z,14.50
2022-12-07T17:26:09.978Z,15.93
2022-12-07T17:28:36.983Z,15.07
2022-12-07T17:31:07.359Z,13.30
2022-12-07T17:33:34.345Z,13.68
2022-12-07T17:36:01.793Z,12.07
2022-12-07T17:38:31.455Z,12.90
2022-12-07T17:40:58.072Z,16.05
2022-12-07T17:43:24.714Z,13.73
2022-12-07T17:45:51.479Z,12.27
2022-12-07T17:48:18.127Z,13.20
2022-12-07T17:50:44.800Z,14.90
2022-12-07T17:53:12.554Z,15.07
2022-12-07T17:56:19.677Z,14.77
2022-12-07T17:58:26.023Z,14.88
2022-12-07T18:00:52.711Z,13.52
2022-12-07T18:03:19.481Z,17.75
2022-12-07T18:05:46.218Z,16.63
2022-12-07T18:08:12.947Z,14.50
2022-12-07T18:10:39.607Z,10.93
2022-12-07T18:13:06.275Z,13.80
2022-12-07T18:15:32.939Z,14.07
2022-12-07T18:17:59.886Z,16.98
2022-12-07T18:20:26.527Z,13.02
2022-12-07T18:22:53.193Z,20.80
2022-12-07T18:25:19.870Z,14.75
2022-12-07T18:27:46.625Z,18.42
2022-12-07T18:30:13.762Z,13.43
2022-12-07T18:32:40.503Z,18.15
2022-12-07T18:35:07.619Z,18.10
2022-12-07T18:37:34.264Z,14.82
2022-12-07T18:40:00.892Z,11.50
2022-12-07T18:42:27.631Z,12.77
2022-12-07T18:44:54.307Z,17.40
2022-12-07T18:47:21.046Z,16.27
2022-12-07T18:49:47.706Z,13.02
2022-12-07T18:52:14.366Z,12.43
2022-12-07T18:54:41.008Z,15.85
2022-12-07T18:57:07.714Z,10.80
2022-12-07T18:59:34.381Z,10.95
2022-12-07T19:02:01.128Z,14.88
2022-12-07T19:04:27.921Z,11.02
2022-12-07T19:06:54.612Z,15.10
2022-12-07T19:09:21.334Z,9.25
2022-12-07T19:11:48.609Z,11.30
2022-12-07T19:14:18.382Z,13.43
2022-12-07T19:16:45.639Z,16.10
2022-12-07T19:19:12.539Z,14.63
2022-12-07T19:21:39.233Z,12.60
2022-12-07T19:24:06.959Z,14.20
2022-12-07T19:26:34.127Z,14.02
2022-12-07T19:29:00.888Z,16.67
2022-12-07T19:31:27.589Z,15.45
2022-12-07T19:33:54.524Z,13.82
2022-12-07T19:36:21.167Z,13.52
2022-12-07T19:38:49.333Z,12.00
2022-12-07T19:41:16.160Z,15.32
2022-12-07T19:43:42.828Z,17.65
2022-12-07T19:46:09.598Z,15.77
2022-12-07T19:48:36.318Z,13.70
2022-12-07T19:51:06.247Z,14.00
2022-12-07T19:53:33.125Z,17.65
2022-12-07T19:55:59.856Z,10.10
2022-12-07T19:58:26.598Z,21.77
2022-12-07T20:00:53.573Z,12.30
2022-12-07T20:03:20.421Z,19.75
2022-12-07T20:05:47.539Z,15.32
2022-12-07T20:08:14.328Z,13.65
2022-12-07T20:10:41.858Z,16.90
2022-12-07T20:13:09.244Z,18.77
2022-12-07T20:15:38.270Z,19.13
2022-12-07T20:18:05.048Z,22.23
2022-12-07T20:20:31.741Z,14.65
2022-12-07T20:22:58.470Z,13.63
2022-12-07T20:25:25.354Z,10.68
2022-12-07T20:27:52.102Z,13.98
2022-12-07T20:30:18.904Z,19.08
2022-12-07T20:32:45.560Z,14.18
2022-12-07T20:35:12.203Z,17.33
2022-12-07T20:37:38.867Z,20.45
2022-12-07T20:40:06.497Z,18.08
2022-12-07T20:42:33.114Z,12.10
2022-12-07T20:45:03.503Z,14.27
2022-12-07T20:47:30.541Z,14.82
2022-12-07T20:49:57.183Z,21.27
2022-12-07T20:52:24.032Z,20.80
2022-12-07T20:54:50.679Z,18.48
2022-12-07T20:57:17.310Z,16.45
2022-12-07T20:59:43.988Z,20.85
2022-12-07T21:02:12.758Z,22.20
2022-12-07T21:04:40.487Z,19.50
2022-12-07T21:07:07.136Z,13.65
2022-12-07T21:09:33.792Z,18.63
2022-12-07T21:12:00.581Z,16.48
2022-12-07T21:14:27.331Z,25.77
2022-12-07T21:16:54.029Z,17.95
2022-12-07T21:19:20.820Z,16.58
2022-12-07T21:21:47.455Z,18.60
2022-12-07T21:24:14.106Z,22.73
2022-12-07T21:26:40.775Z,15.10
2022-12-07T21:29:07.808Z,21.60
2022-12-07T21:31:35.124Z,22.65
2022-12-07T21:34:03.515Z,18.35
2022-12-07T21:36:30.233Z,21.30
2022-12-07T21:38:57.637Z,20.05
2022-12-07T21:41:30.104Z,17.10
2022-12-07T21:43:57.243Z,17.10
2022-12-07T21:46:32.926Z,19.30
2022-12-07T21:49:10.738Z,20.85
2022-12-07T21:51:37.488Z,19.02
2022-12-07T21:54:05.926Z,17.58
2022-12-07T21:56:41.366Z,16.27
2022-12-07T21:59:16.512Z,18.38
2022-12-07T22:01:45.207Z,16.88
2022-12-07T22:04:21.455Z,22.50
2022-12-07T22:06:49.519Z,18.52
2022-12-07T22:09:16.489Z,18.88
2022-12-07T22:11:43.175Z,26.52
2022-12-07T22:14:10.900Z,22.42
2022-12-07T22:16:39.041Z,23.02
2022-12-07T22:19:06.883Z,19.38
2022-12-07T22:21:33.784Z,20.90
2022-12-07T22:24:00.403Z,20.95
2022-12-07T22:26:27.456Z,20.50
2022-12-07T22:28:54.360Z,18.70
2022-12-07T22:31:21.549Z,21.05
2022-12-07T22:33:48.774Z,18.45
2022-12-07T22:36:16.037Z,15.45
2022-12-07T22:38:43.630Z,20.70
2022-12-07T22:41:11.158Z,20.27
2022-12-07T22:43:38.618Z,22.45
2022-12-07T22:46:05.826Z,21.75
2022-12-07T22:48:32.663Z,17.83
2022-12-07T22:50:59.338Z,17.52
2022-12-07T22:53:26.303Z,18.13
2022-12-07T22:55:53.377Z,18.55
2022-12-07T22:58:20.202Z,20.17
2022-12-07T23:00:46.872Z,21.45
2022-12-07T23:03:14.431Z,26.75
2022-12-07T23:05:46.578Z,22.27
2022-12-07T23:08:13.755Z,22.38
2022-12-07T23:10:46.180Z,23.38
2022-12-07T23:13:15.157Z,22.27
2022-12-07T23:15:41.824Z,23.20
2022-12-07T23:18:08.506Z,19.73
2022-12-07T23:20:35.208Z,21.70
2022-12-07T23:23:02.486Z,23.08
2022-12-07T23:25:29.226Z,20.05
2022-12-07T23:27:55.903Z,22.40
2022-12-07T23:30:22.569Z,22.83
2022-12-07T23:32:49.366Z,23.05
2022-12-07T23:35:16.991Z,27.75
2022-12-07T23:37:44.371Z,21.95
2022-12-07T23:40:15.597Z,23.00
2022-12-07T23:42:54.304Z,23.50
2022-12-07T23:45:21.168Z,27.35
2022-12-07T23:47:47.819Z,32.30
2022-12-07T23:50:14.474Z,30.35
2022-12-07T23:52:41.090Z,22.48
2022-12-07T23:55:08.191Z,25.75
2022-12-07T23:57:34.836Z,19.15
